Meteo Giornale » Osservazioni meteo Italia » Lecce

ore: 15:55 - Osservazioni Meteo Lecce
Lat. 40° 14' N Lon. 18° 9' E Alt. 48 metri s.l.m.

nuvoloso

33 °C

Nuvoloso

Temp. 24 Ore

27 °C

37 °C

Est/Nord-Est

13 Km/h

Dew point 24 °C

Umidità 59 %

Visibilità  7 Km

Il sole sorge alle ore 06:13

Il sole tramonta alle ore 19:21

Data e Ora Cielo e Fenomeni T °C DP °C Um. % Pres. hPa Vis. km Vento km/h
Oggi h: 15:55 nuvoloso Nuvoloso 33 24 59 1012 7 E/NE 13
Oggi h: 14:55 nuvoloso Nuvoloso 34 24 56 1012 7 E 11.1
Oggi h: 13:55 nuvoloso Nuvoloso 34 25 59 1013 7 E 14.8
Oggi h: 12:55 nuvoloso Nuvoloso 34 25 59 1013 10 E 11.1
Oggi h: 11:55 nuvoloso Nuvoloso 32 25 66 1013 10 N/NE 7.4
Oggi h: 10:55 nuvoloso Nuvoloso 32 25 66 1013 10 N 5.5
Oggi h: 09:55 nuvoloso Nuvoloso 31 25 70 1013 8 N 7.4
Oggi h: 08:55 nuvoloso Nuvoloso 29 25 79 1013 7 N/NO 9.3
Oggi h: 07:55 nuvoloso Nuvoloso 28 25 83 1013 7 N/NO 13
Oggi h: 06:55 molto_nuvoloso Molto Nuvoloso 27 25 88 1013 7 N 5.5
Oggi h: 05:55 molto_nuvoloso Molto Nuvoloso 27 25 88 1013 10 N 7.4
Oggi h: 04:55 sereno Sereno 27 25 88 1012 10 N 3.7
Oggi h: 03:55 sereno Sereno 27 25 88 1012 10 SE 7.4
Oggi h: 02:55 sereno Sereno 27 25 88 1012 10 SE 9.3
Oggi h: 01:55 sereno Sereno 28 25 83 1012 10 SE 11.1
Oggi h: 00:55 sereno Sereno 28 25 83 1012 10 SE 11.1
Ieri h: 23:55 sereno Sereno 28 25 83 1012 10 S/SE 9.3
Ieri h: 22:55 sereno Sereno 28 25 83 1013 10 S/SE 13
Ieri h: 21:55 sereno Sereno 29 24 74 1012 10 SE 13
Ieri h: 20:55 sereno Sereno 30 22 62 1013 10 S/SE 16.7
Ieri h: 19:55 sereno Sereno 31 20 52 1012 10 S/SE 16.7
Ieri h: 18:55 sereno Sereno 33 19 43 1011 10 S/SE 18.5
Ieri h: 17:55 sereno Sereno 36 17 32 1012 10 S/SE 20.3
Ieri h: 16:55 sereno Sereno 37 18 32 1012 10 S 18.5